Time;durP1;ratioP1;P1;durP2;ratioP2;P2;SDS_P1;SDS_P2;PMS_P1;PMS_P2;Temp;Humidity;BMP_temperature;BMP_pressure;BME280_temperature;BME280_humidity;BME280_pressure;Samples;Min_cycle;Max_cycle;Signal;HPM_P1;HPM_P2
2023/09/10 00:00:35;;;;;;;5.80;3.65;;;;;;;19.46;100.00;100516.31;5068199;28;20036;-85
2023/09/10 00:03:01;;;;;;;3.22;2.15;;;;;;;19.49;100.00;100520.41;5066708;28;20114;-85
2023/09/10 00:05:30;;;;;;;3.88;3.03;;;;;;;19.51;100.00;100516.50;5043096;28;20115;-83
2023/09/10 00:07:55;;;;;;;4.82;3.63;;;;;;;19.58;100.00;100521.88;5044289;28;20032;-83
2023/09/10 00:10:21;;;;;;;6.95;4.05;;;;;;;19.57;100.00;100522.91;5066848;28;20044;-83
2023/09/10 00:12:47;;;;;;;9.57;3.83;;;;;;;19.60;100.00;100509.09;5049391;28;20035;-83
2023/09/10 00:15:13;;;;;;;6.25;4.35;;;;;;;19.67;100.00;100511.81;5060779;28;20032;-85
2023/09/10 00:17:38;;;;;;;5.30;3.63;;;;;;;19.65;100.00;100513.88;5033134;28;20036;-85
2023/09/10 00:20:06;;;;;;;6.47;3.22;;;;;;;19.67;100.00;100509.94;5021287;28;20040;-83
2023/09/10 00:22:32;;;;;;;6.85;3.80;;;;;;;19.66;100.00;100502.94;5034718;28;20532;-83
2023/09/10 00:24:58;;;;;;;2.50;1.90;;;;;;;19.66;100.00;100502.09;5052124;28;20078;-85
2023/09/10 00:27:24;;;;;;;2.90;1.80;;;;;;;19.67;100.00;100499.22;5070089;28;20040;-85
2023/09/10 00:29:49;;;;;;;5.40;2.88;;;;;;;19.69;100.00;100496.31;5052020;28;20042;-85
2023/09/10 00:32:15;;;;;;;3.90;2.95;;;;;;;19.74;100.00;100503.75;5060202;28;20036;-85
2023/09/10 00:34:41;;;;;;;5.25;3.00;;;;;;;19.73;100.00;100492.22;5054386;28;20035;-85
2023/09/10 00:37:07;;;;;;;5.75;3.00;;;;;;;19.79;100.00;100501.28;5076772;28;20040;-85
2023/09/10 00:39:33;;;;;;;7.18;2.90;;;;;;;19.82;100.00;100503.56;5045926;28;20040;-85
2023/09/10 00:41:59;;;;;;;7.45;3.30;;;;;;;19.84;100.00;100496.16;5036552;28;20392;-83
2023/09/10 00:44:26;;;;;;;9.98;3.65;;;;;;;19.86;100.00;100501.31;5072614;28;20048;-83
2023/09/10 00:46:53;;;;;;;3.72;2.85;;;;;;;19.81;100.00;100502.72;5057752;28;20173;-85
2023/09/10 00:49:19;;;;;;;4.20;3.40;;;;;;;19.79;100.00;100491.41;5078335;28;20247;-85
2023/09/10 00:51:47;;;;;;;3.63;2.80;;;;;;;19.74;100.00;100474.25;5048540;28;20060;-83
2023/09/10 00:54:15;;;;;;;3.53;2.80;;;;;;;19.72;100.00;100482.50;5076606;28;20032;-83
2023/09/10 00:56:41;;;;;;;3.17;2.55;;;;;;;19.73;100.00;100477.97;5059543;28;20027;-85
2023/09/10 00:59:08;;;;;;;3.72;2.63;;;;;;;19.67;100.00;100474.28;5049169;28;20139;-85
2023/09/10 01:01:35;;;;;;;6.70;2.80;;;;;;;19.62;100.00;100466.81;5057710;28;20054;-83
2023/09/10 01:04:01;;;;;;;3.38;2.45;;;;;;;19.65;100.00;100476.31;5058619;28;20039;-83
2023/09/10 01:06:28;;;;;;;2.50;1.95;;;;;;;19.61;100.00;100473.22;5060830;28;20048;-84
2023/09/10 01:08:53;;;;;;;3.00;2.42;;;;;;;19.60;100.00;100471.56;5054280;28;20056;-83
2023/09/10 01:11:27;;;;;;;3.15;2.53;;;;;;;19.63;100.00;100470.34;5062244;28;20484;-83
2023/09/10 01:14:05;;;;;;;6.88;2.42;;;;;;;19.64;100.00;100467.44;5043736;28;20519;-83
2023/09/10 01:17:10;;;;;;;4.88;2.25;;;;;;;19.54;100.00;100467.03;5057635;28;20036;-84
2023/09/10 01:19:42;;;;;;;2.33;1.70;;;;;;;19.45;100.00;100469.06;5074154;28;20051;-85
2023/09/10 01:22:45;;;;;;;3.22;2.08;;;;;;;19.44;100.00;100476.28;5040491;28;20083;-85
2023/09/10 01:25:12;;;;;;;2.95;1.88;;;;;;;19.41;100.00;100471.34;5015105;28;20123;-85
2023/09/10 01:27:37;;;;;;;3.05;2.42;;;;;;;19.42;100.00;100462.25;5051598;28;20033;-85
2023/09/10 01:30:04;;;;;;;3.15;2.33;;;;;;;19.46;100.00;100454.66;5017903;28;20048;-83
2023/09/10 01:32:40;;;;;;;6.05;2.15;;;;;;;19.55;100.00;100449.91;5015755;28;20083;-83
2023/09/10 01:35:19;;;;;;;5.03;2.38;;;;;;;19.54;100.00;100454.44;5018495;28;20127;-85
2023/09/10 01:37:51;;;;;;;2.78;2.22;;;;;;;19.55;100.00;100456.09;5037442;28;20047;-85
2023/09/10 01:40:26;;;;;;;3.95;2.10;;;;;;;19.59;100.00;100453.81;5012273;28;20036;-85
2023/09/10 01:42:52;;;;;;;1.77;0.98;;;;;;;19.53;100.00;100443.91;5049019;28;20047;-85
2023/09/10 01:45:18;;;;;;;1.30;0.38;;;;;;;19.53;100.00;100441.22;5016976;28;20434;-85
2023/09/10 01:47:44;;;;;;;0.88;0.80;;;;;;;19.52;100.00;100436.91;5038877;28;20517;-85
2023/09/10 01:50:10;;;;;;;1.10;1.00;;;;;;;19.47;100.00;100437.53;5046848;28;20067;-85
2023/09/10 01:52:36;;;;;;;0.90;0.70;;;;;;;19.44;100.00;100443.28;5015277;28;20397;-85
2023/09/10 01:55:02;;;;;;;1.70;0.50;;;;;;;19.40;100.00;100440.19;5053668;28;20032;-85
2023/09/10 01:57:28;;;;;;;2.78;0.80;;;;;;;19.41;100.00;100435.66;5014828;28;20039;-85
2023/09/10 01:59:54;;;;;;;3.95;2.60;;;;;;;19.36;100.00;100433.59;5051556;28;20377;-84
2023/09/10 02:02:19;;;;;;;1.65;0.90;;;;;;;19.36;100.00;100436.28;5030315;28;20374;-84
2023/09/10 02:04:45;;;;;;;3.97;0.90;;;;;;;19.28;100.00;100433.78;5019883;28;20488;-83
2023/09/10 02:07:11;;;;;;;3.58;2.45;;;;;;;19.23;100.00;100428.19;5026799;28;20037;-85
2023/09/10 02:09:36;;;;;;;2.10;1.20;;;;;;;19.17;100.00;100435.19;5032043;28;20083;-85
2023/09/10 02:12:03;;;;;;;4.30;2.53;;;;;;;19.16;100.00;100437.03;5053988;28;20037;-85
2023/09/10 02:14:29;;;;;;;1.58;1.25;;;;;;;19.09;100.00;100425.50;5031840;28;20037;-85
2023/09/10 02:16:54;;;;;;;2.70;1.67;;;;;;;19.00;100.00;100424.81;5026207;28;20048;-85
2023/09/10 02:19:20;;;;;;;3.85;2.30;;;;;;;18.96;100.00;100431.59;5050876;28;20037;-85
2023/09/10 02:21:46;;;;;;;3.00;1.60;;;;;;;18.93;100.00;100423.97;5054609;28;20045;-85
2023/09/10 02:24:11;;;;;;;4.13;1.63;;;;;;;18.94;100.00;100422.94;5034393;28;20032;-85
2023/09/10 02:26:37;;;;;;;4.15;2.25;;;;;;;18.96;100.00;100423.56;5033174;28;20025;-83
2023/09/10 02:29:03;;;;;;;5.40;2.28;;;;;;;18.97;100.00;100425.19;5065005;28;20037;-84
2023/09/10 02:31:29;;;;;;;2.60;1.50;;;;;;;18.96;100.00;100421.72;5034409;28;20040;-85
2023/09/10 02:34:00;;;;;;;3.38;2.55;;;;;;;18.99;100.00;100425.00;5067993;28;20040;-85
2023/09/10 02:36:28;;;;;;;3.25;2.35;;;;;;;19.01;100.00;100422.97;5048356;28;20040;-86
2023/09/10 02:38:53;;;;;;;5.35;3.55;;;;;;;19.01;100.00;100414.91;5049289;28;20040;-85
2023/09/10 02:41:19;;;;;;;5.47;3.30;;;;;;;18.97;100.00;100420.69;5033937;28;20033;-86
2023/09/10 02:43:45;;;;;;;5.90;3.75;;;;;;;18.96;100.00;100418.19;5036383;28;20564;-85
2023/09/10 02:46:11;;;;;;;7.57;3.42;;;;;;;18.96;100.00;100419.03;5049118;28;20085;-85
2023/09/10 02:48:36;;;;;;;5.90;3.67;;;;;;;18.94;100.00;100420.25;5045849;28;20511;-86
2023/09/10 02:51:02;;;;;;;4.25;3.10;;;;;;;18.87;100.00;100417.56;5060878;28;20032;-86
2023/09/10 02:53:28;;;;;;;25.88;4.93;;;;;;;18.87;100.00;100422.09;5058399;28;20036;-86
2023/09/10 02:56:01;;;;;;;6.40;3.30;;;;;;;18.85;100.00;100416.94;5031352;28;20039;-86
2023/09/10 02:58:27;;;;;;;4.38;3.35;;;;;;;18.82;100.00;100409.31;5042571;28;20040;-86
2023/09/10 03:00:53;;;;;;;6.00;3.00;;;;;;;18.87;100.00;100420.25;5054102;28;20170;-86
2023/09/10 03:03:19;;;;;;;3.13;2.80;;;;;;;18.88;100.00;100421.06;5060784;28;20036;-85
2023/09/10 03:05:46;;;;;;;3.25;2.60;;;;;;;18.94;100.00;100418.41;5037822;28;20594;-85
2023/09/10 03:08:12;;;;;;;2.65;2.30;;;;;;;18.95;100.00;100412.00;5065894;28;20032;-85
2023/09/10 03:10:38;;;;;;;4.53;2.17;;;;;;;18.96;100.00;100408.31;5035007;28;20033;-85
2023/09/10 03:13:04;;;;;;;3.65;1.83;;;;;;;18.94;100.00;100415.72;5031081;28;20033;-85
2023/09/10 03:15:30;;;;;;;4.50;2.40;;;;;;;18.88;100.00;100407.66;5037015;28;20041;-85
2023/09/10 03:17:56;;;;;;;2.40;2.17;;;;;;;18.85;100.00;100414.25;5043098;28;20075;-85
2023/09/10 03:20:21;;;;;;;2.92;2.60;;;;;;;18.83;100.00;100413.63;5032941;28;20080;-85
2023/09/10 03:22:49;;;;;;;4.32;2.53;;;;;;;18.80;100.00;100412.19;5049721;28;20037;-86
2023/09/10 03:25:15;;;;;;;4.15;2.10;;;;;;;18.81;100.00;100407.63;5031156;28;20040;-86
2023/09/10 03:27:40;;;;;;;4.10;2.47;;;;;;;18.75;100.00;100414.63;5047970;28;20040;-86
2023/09/10 03:30:07;;;;;;;3.10;2.50;;;;;;;18.69;100.00;100408.22;5014025;28;20029;-85
2023/09/10 03:32:32;;;;;;;4.07;2.05;;;;;;;18.69;100.00;100418.09;5026543;28;20715;-85
2023/09/10 03:34:58;;;;;;;2.72;2.22;;;;;;;18.68;100.00;100413.78;5030288;28;20032;-86
2023/09/10 03:37:24;;;;;;;4.97;2.20;;;;;;;18.64;100.00;100409.84;5028788;28;20041;-85
2023/09/10 03:39:50;;;;;;;2.85;2.08;;;;;;;18.61;100.00;100411.06;5048839;28;20029;-85
2023/09/10 03:44:50;;;;;;;3.53;2.70;;;;;;;18.56;100.00;100410.81;5003216;28;20067;-84
2023/09/10 03:47:16;;;;;;;2.70;2.50;;;;;;;18.52;100.00;100415.75;5002460;28;20032;-85
2023/09/10 03:49:42;;;;;;;3.35;2.75;;;;;;;18.49;100.00;100415.31;5036510;28;20028;-86
2023/09/10 03:52:21;;;;;;;5.63;2.80;;;;;;;18.50;100.00;100420.47;5044747;28;20032;-86
2023/09/10 03:54:48;;;;;;;8.60;2.90;;;;;;;18.51;100.00;100426.63;5047591;28;20035;-85
2023/09/10 03:57:14;;;;;;;4.47;2.60;;;;;;;18.51;100.00;100418.63;4998750;28;20097;-85
2023/09/10 03:59:41;;;;;;;2.58;1.85;;;;;;;18.47;100.00;100410.97;5013101;28;20114;-85
2023/09/10 04:02:08;;;;;;;2.60;1.83;;;;;;;18.51;100.00;100419.44;5031330;28;20063;-85
2023/09/10 04:04:34;;;;;;;4.07;1.73;;;;;;;18.51;100.00;100414.09;5034333;28;20036;-85
2023/09/10 04:07:00;;;;;;;2.10;1.67;;;;;;;18.53;100.00;100413.91;4958471;28;20370;-85
2023/09/10 04:09:25;;;;;;;3.88;2.22;;;;;;;18.53;100.00;100414.75;5020276;28;20044;-85
2023/09/10 04:11:51;;;;;;;2.83;2.60;;;;;;;18.54;100.00;100402.19;5040857;28;20021;-85
2023/09/10 04:14:17;;;;;;;8.57;2.47;;;;;;;18.52;100.00;100399.69;5037510;28;20044;-85
2023/09/10 04:16:43;;;;;;;6.47;1.83;;;;;;;18.45;100.00;100399.66;5009899;28;20037;-85
2023/09/10 04:19:09;;;;;;;3.88;1.60;;;;;;;18.40;100.00;100403.94;5048486;28;20040;-85
2023/09/10 04:21:35;;;;;;;3.72;1.75;;;;;;;18.39;100.00;100395.09;5041676;28;20056;-85
2023/09/10 04:24:00;;;;;;;1.98;1.20;;;;;;;18.41;100.00;100392.25;5017274;28;20037;-85
2023/09/10 04:26:26;;;;;;;6.95;2.70;;;;;;;18.39;100.00;100387.09;5034656;28;20036;-85
2023/09/10 04:28:52;;;;;;;3.03;2.13;;;;;;;18.34;100.00;100390.34;5026361;28;20041;-86
2023/09/10 04:31:18;;;;;;;2.45;1.77;;;;;;;18.28;100.00;100380.44;5050367;28;20379;-85
2023/09/10 04:33:44;;;;;;;12.27;3.38;;;;;;;18.17;100.00;100381.00;5016834;28;20068;-85
2023/09/10 04:36:11;;;;;;;32.33;4.40;;;;;;;18.10;100.00;100368.38;5018469;28;20090;-85
2023/09/10 04:38:38;;;;;;;12.10;4.15;;;;;;;18.06;100.00;100367.09;5020178;28;20713;-86
2023/09/10 04:41:03;;;;;;;3.53;2.40;;;;;;;18.03;100.00;100367.47;5049383;28;20032;-86
2023/09/10 04:43:30;;;;;;;8.25;3.70;;;;;;;17.97;100.00;100365.59;5042154;28;20144;-85
2023/09/10 04:45:56;;;;;;;10.57;3.72;;;;;;;17.89;100.00;100363.06;5028450;28;20040;-85
2023/09/10 04:48:23;;;;;;;4.60;2.50;;;;;;;17.80;100.00;100359.72;5044121;28;20047;-85
2023/09/10 04:50:49;;;;;;;4.90;2.42;;;;;;;17.78;100.00;100365.25;5034572;28;20029;-85
2023/09/10 04:53:17;;;;;;;5.63;3.40;;;;;;;17.76;100.00;100367.28;5032296;28;20479;-86
2023/09/10 04:55:42;;;;;;;4.47;2.50;;;;;;;17.75;100.00;100367.50;5052161;28;20104;-84
2023/09/10 04:58:12;;;;;;;16.95;2.80;;;;;;;17.87;100.00;100368.59;5057010;28;21481;-84
2023/09/10 05:00:40;;;;;;;9.82;3.92;;;;;;;17.91;100.00;100364.53;5052704;28;20020;-85
2023/09/10 05:03:06;;;;;;;7.30;3.75;;;;;;;17.91;100.00;100366.38;5034755;28;20041;-85
2023/09/10 05:05:33;;;;;;;30.17;4.20;;;;;;;17.92;100.00;100370.69;5033379;28;20488;-86
2023/09/10 05:07:58;;;;;;;145.55;7.85;;;;;;;17.92;100.00;100370.69;5027279;28;20048;-86
2023/09/10 05:10:24;;;;;;;24.90;4.82;;;;;;;17.89;100.00;100382.63;5057590;28;20032;-85
2023/09/10 05:12:53;;;;;;;9.50;4.32;;;;;;;17.87;100.00;100379.31;5030687;28;20041;-85
2023/09/10 05:15:19;;;;;;;6.15;4.28;;;;;;;17.82;100.00;100371.88;5034031;28;20079;-84
2023/09/10 05:17:44;;;;;;;6.88;4.65;;;;;;;17.80;100.00;100381.94;5019468;28;20029;-84
2023/09/10 05:20:10;;;;;;;6.28;4.40;;;;;;;17.82;100.00;100376.41;5056697;28;20024;-86
2023/09/10 05:22:36;;;;;;;8.27;5.38;;;;;;;17.87;100.00;100381.16;5031532;28;20068;-86
2023/09/10 05:25:02;;;;;;;7.10;4.75;;;;;;;17.85;100.00;100376.03;5050291;28;20044;-86
2023/09/10 05:27:28;;;;;;;7.28;5.47;;;;;;;17.84;100.00;100379.69;5031634;28;20037;-86
2023/09/10 05:29:54;;;;;;;4.50;4.10;;;;;;;17.88;100.00;100380.13;5051992;28;20041;-86
2023/09/10 05:32:20;;;;;;;5.32;4.72;;;;;;;17.90;100.00;100383.44;5057584;28;20056;-86
2023/09/10 05:34:46;;;;;;;5.97;5.07;;;;;;;17.90;100.00;100386.94;5042167;28;20087;-86
2023/09/10 05:37:12;;;;;;;9.77;4.95;;;;;;;17.89;100.00;100390.63;5031464;28;20032;-86
2023/09/10 05:39:38;;;;;;;8.43;4.97;;;;;;;17.91;100.00;100377.91;5049686;28;20029;-85
2023/09/10 05:42:04;;;;;;;4.15;3.33;;;;;;;17.94;100.00;100385.53;5021011;28;20037;-85
2023/09/10 05:44:30;;;;;;;4.07;3.10;;;;;;;17.96;100.00;100375.47;5018518;28;20105;-85
2023/09/10 05:46:55;;;;;;;4.95;3.65;;;;;;;18.00;100.00;100373.22;5050732;28;20021;-86
2023/09/10 05:49:21;;;;;;;5.47;4.25;;;;;;;17.98;100.00;100373.41;5036320;28;20405;-86
2023/09/10 05:51:47;;;;;;;6.85;3.42;;;;;;;17.98;100.00;100377.97;5038992;28;20037;-85
2023/09/10 05:54:13;;;;;;;4.38;2.70;;;;;;;17.87;100.00;100379.31;5047475;28;20040;-86
2023/09/10 05:56:39;;;;;;;6.05;3.70;;;;;;;17.85;100.00;100378.69;5033615;28;20035;-85
2023/09/10 05:59:06;;;;;;;12.07;4.85;;;;;;;17.92;100.00;100376.88;5032512;28;20489;-86
2023/09/10 06:01:31;;;;;;;16.35;7.18;;;;;;;17.95;100.00;100381.84;5064823;28;20033;-85
2023/09/10 06:03:59;;;;;;;17.13;7.10;;;;;;;17.94;100.00;100382.88;5067575;28;20024;-86
2023/09/10 06:06:27;;;;;;;25.48;6.80;;;;;;;17.95;100.00;100383.66;5046086;28;20546;-86
2023/09/10 06:08:53;;;;;;;43.92;8.25;;;;;;;17.92;100.00;100381.38;5032238;28;20033;-85
2023/09/10 06:11:19;;;;;;;42.30;10.32;;;;;;;17.89;100.00;100381.78;5048659;28;20720;-86
2023/09/10 06:13:45;;;;;;;23.33;9.70;;;;;;;17.90;100.00;100384.25;5032973;28;20037;-85
2023/09/10 06:16:11;;;;;;;38.42;11.57;;;;;;;17.93;100.00;100375.03;5064036;28;20087;-85
2023/09/10 06:18:36;;;;;;;123.35;11.50;;;;;;;17.91;100.00;100369.06;5021330;28;20035;-85
2023/09/10 06:21:02;;;;;;;73.00;9.63;;;;;;;17.82;100.00;100373.72;5062113;28;20160;-86
2023/09/10 06:23:28;;;;;;;165.48;12.38;;;;;;;17.70;100.00;100363.56;5052752;28;20033;-85
2023/09/10 06:25:54;;;;;;;188.57;12.43;;;;;;;17.60;100.00;100365.72;5055361;28;20374;-85
2023/09/10 06:28:20;;;;;;;71.72;11.38;;;;;;;17.53;100.00;100375.56;5064890;28;20385;-85
2023/09/10 06:30:46;;;;;;;54.13;11.30;;;;;;;17.54;100.00;100390.56;5065489;28;20036;-85
2023/09/10 06:33:13;;;;;;;78.30;11.30;;;;;;;17.52;100.00;100381.94;5058993;28;20032;-86
2023/09/10 06:35:39;;;;;;;63.50;11.38;;;;;;;17.51;100.00;100380.25;5048082;28;20455;-86
2023/09/10 06:38:05;;;;;;;108.85;12.15;;;;;;;17.55;100.00;100384.22;5072194;28;20078;-86
2023/09/10 06:40:31;;;;;;;114.18;11.73;;;;;;;17.60;100.00;100397.81;5056371;28;20062;-85
2023/09/10 06:42:57;;;;;;;113.63;11.02;;;;;;;17.64;100.00;100398.25;5033039;28;20797;-86
2023/09/10 06:45:40;;;;;;;78.20;10.15;;;;;;;17.67;100.00;100401.38;5050578;28;20036;-85
2023/09/10 06:48:06;;;;;;;76.90;9.63;;;;;;;17.68;100.00;100396.84;5054166;28;20485;-86
2023/09/10 06:50:32;;;;;;;77.95;9.50;;;;;;;17.71;100.00;100401.81;5034643;28;20131;-85
2023/09/10 06:52:58;;;;;;;70.68;8.63;;;;;;;17.72;100.00;100403.47;5051846;28;20040;-85
2023/09/10 06:55:23;;;;;;;53.70;8.10;;;;;;;17.72;100.00;100401.63;5054281;28;20039;-86
2023/09/10 06:57:49;;;;;;;36.65;8.05;;;;;;;17.75;100.00;100397.72;5050111;28;20039;-85
2023/09/10 07:00:15;;;;;;;19.38;7.22;;;;;;;17.76;100.00;100401.25;5068361;28;20025;-85
2023/09/10 07:02:41;;;;;;;75.65;8.10;;;;;;;17.77;100.00;100392.19;5057870;28;20373;-85
2023/09/10 07:05:07;;;;;;;68.28;7.97;;;;;;;17.66;100.00;100393.53;5052064;28;20024;-85
2023/09/10 07:07:33;;;;;;;45.97;7.70;;;;;;;17.58;100.00;100402.53;5050777;28;20051;-85
2023/09/10 07:09:58;;;;;;;29.92;7.53;;;;;;;17.59;100.00;100401.50;5055768;28;20044;-85
2023/09/10 07:12:24;;;;;;;47.20;8.38;;;;;;;17.65;100.00;100402.56;5041947;28;20038;-85
2023/09/10 07:14:50;;;;;;;19.67;8.20;;;;;;;17.70;100.00;100400.16;5069407;28;20032;-85
2023/09/10 07:17:15;;;;;;;144.57;7.70;;;;;;;17.76;100.00;100403.91;5054446;28;20135;-85
2023/09/10 07:19:41;;;;;;;261.50;9.27;;;;;;;17.65;100.00;100399.91;5035832;28;20024;-85
2023/09/10 07:22:07;;;;;;;105.75;7.95;;;;;;;17.60;100.00;100403.16;5041158;28;20049;-85
2023/09/10 07:24:33;;;;;;;165.63;7.82;;;;;;;17.58;100.00;100397.19;5070025;28;20029;-85
2023/09/10 07:27:01;;;;;;;22.83;4.57;;;;;;;17.57;100.00;100399.03;5037131;28;20066;-86
2023/09/10 07:29:27;;;;;;;184.15;7.18;;;;;;;17.60;100.00;100390.63;5067694;28;20039;-85
2023/09/10 07:31:54;;;;;;;150.57;6.75;;;;;;;17.61;100.00;100388.78;5054561;28;20065;-85
2023/09/10 07:34:20;;;;;;;192.63;7.50;;;;;;;17.60;100.00;100384.44;5058926;28;20024;-85
2023/09/10 07:36:46;;;;;;;135.38;6.90;;;;;;;17.55;100.00;100384.22;5061633;28;20428;-85
2023/09/10 07:39:13;;;;;;;58.70;5.75;;;;;;;17.55;100.00;100379.66;5067363;28;20028;-85
2023/09/10 07:41:39;;;;;;;99.65;6.65;;;;;;;17.56;100.00;100380.50;5009439;28;20024;-85
2023/09/10 07:44:05;;;;;;;128.35;6.70;;;;;;;17.56;100.00;100376.00;5045374;28;20040;-85
2023/09/10 07:46:32;;;;;;;30.15;5.05;;;;;;;17.61;100.00;100368.22;5053807;28;20039;-83
2023/09/10 07:48:58;;;;;;;213.18;7.82;;;;;;;17.63;100.00;100372.56;5072235;28;20024;-83
2023/09/10 07:51:24;;;;;;;59.90;5.88;;;;;;;17.63;100.00;100370.69;5019482;28;20033;-85
2023/09/10 07:53:49;;;;;;;184.80;7.15;;;;;;;17.66;100.00;100374.84;5050046;28;20397;-85
2023/09/10 07:56:15;;;;;;;145.27;7.10;;;;;;;17.65;100.00;100370.50;5053833;28;20032;-85
2023/09/10 07:58:41;;;;;;;167.52;7.03;;;;;;;17.68;100.00;100367.44;5060714;28;20040;-85
2023/09/10 08:01:06;;;;;;;157.00;8.00;;;;;;;17.71;100.00;100364.41;5038554;28;20038;-84
2023/09/10 08:03:34;;;;;;;201.35;7.60;;;;;;;17.68;100.00;100362.09;5050985;28;20033;-85
2023/09/10 08:06:00;;;;;;;154.93;8.23;;;;;;;17.72;100.00;100363.38;5031468;28;20037;-85
2023/09/10 08:08:25;;;;;;;52.40;6.05;;;;;;;17.81;100.00;100364.88;5051619;28;20867;-85
2023/09/10 08:10:51;;;;;;;8.77;6.93;;;;;;;17.90;100.00;100372.75;5028826;28;20638;-85
2023/09/10 08:13:17;;;;;;;6.35;5.75;;;;;;;18.00;100.00;100372.41;5053541;28;20048;-86
2023/09/10 08:15:43;;;;;;;15.85;5.60;;;;;;;18.05;100.00;100373.47;5049065;28;20174;-85
2023/09/10 08:18:11;;;;;;;23.00;5.45;;;;;;;18.14;100.00;100371.50;5074643;28;20389;-86
2023/09/10 08:20:41;;;;;;;21.98;5.43;;;;;;;18.20;100.00;100370.69;5049676;28;20037;-84
2023/09/10 08:23:08;;;;;;;9.93;5.38;;;;;;;18.22;100.00;100370.50;5035640;28;20486;-85
2023/09/10 08:25:34;;;;;;;11.57;4.97;;;;;;;18.28;100.00;100366.22;5028833;28;20060;-85
2023/09/10 08:28:00;;;;;;;5.28;4.88;;;;;;;18.35;100.00;100361.72;5029051;28;20099;-85
2023/09/10 08:30:27;;;;;;;6.97;4.80;;;;;;;18.44;100.00;100357.06;5009744;28;20756;-85
2023/09/10 08:32:53;;;;;;;8.80;5.32;;;;;;;18.50;100.00;100355.41;5000360;28;20029;-85
2023/09/10 08:35:20;;;;;;;13.85;5.30;;;;;;;18.55;100.00;100350.31;5045660;28;20043;-85
2023/09/10 08:37:46;;;;;;;11.43;5.03;;;;;;;18.58;100.00;100347.22;5046912;28;20032;-84
2023/09/10 08:40:12;;;;;;;24.00;5.22;;;;;;;18.63;100.00;100347.44;5005301;28;20032;-85
2023/09/10 08:42:40;;;;;;;11.07;5.20;;;;;;;18.66;100.00;100344.38;5041992;28;20033;-85
2023/09/10 08:45:09;;;;;;;8.05;5.45;;;;;;;18.72;100.00;100348.94;5027061;28;20037;-85
2023/09/10 08:47:40;;;;;;;7.10;5.22;;;;;;;18.80;100.00;100345.25;5013660;28;20425;-85
2023/09/10 08:50:11;;;;;;;6.13;5.63;;;;;;;18.86;100.00;100348.94;5025982;28;20029;-85
2023/09/10 08:52:39;;;;;;;6.10;5.50;;;;;;;18.89;100.00;100337.03;5034483;28;20087;-86
2023/09/10 08:55:09;;;;;;;10.90;5.97;;;;;;;18.95;100.00;100341.56;5025031;28;20123;-84
2023/09/10 08:57:37;;;;;;;5.40;4.90;;;;;;;19.02;100.00;100330.84;5026174;28;20075;-84
2023/09/10 09:00:10;;;;;;;6.28;5.18;;;;;;;19.06;100.00;100330.22;5022783;28;20457;-84
2023/09/10 09:02:37;;;;;;;5.97;5.35;;;;;;;19.04;100.00;100329.63;5010578;28;20036;-85
2023/09/10 09:05:05;;;;;;;5.82;5.30;;;;;;;19.09;100.00;100327.22;5029102;28;20115;-84
2023/09/10 09:07:36;;;;;;;5.70;5.10;;;;;;;19.21;100.00;100324.75;5031724;28;20099;-84
2023/09/10 09:10:02;;;;;;;5.38;4.88;;;;;;;19.36;100.00;100318.34;5046731;28;20443;-83
2023/09/10 09:12:32;;;;;;;5.70;4.90;;;;;;;19.49;100.00;100322.06;5027251;28;20048;-84
2023/09/10 09:15:01;;;;;;;8.35;5.45;;;;;;;19.65;100.00;100320.81;5043185;28;20429;-84
2023/09/10 09:17:28;;;;;;;6.13;5.53;;;;;;;19.86;100.00;100327.78;5029896;28;20029;-84
2023/09/10 09:19:56;;;;;;;6.97;5.43;;;;;;;20.05;100.00;100328.81;5043714;28;20037;-84
2023/09/10 09:22:28;;;;;;;6.78;6.03;;;;;;;20.24;100.00;100314.72;5045484;28;20057;-85
2023/09/10 09:24:55;;;;;;;8.02;4.90;;;;;;;20.35;100.00;100319.44;5045438;28;20028;-84
2023/09/10 09:27:24;;;;;;;6.72;5.20;;;;;;;20.47;100.00;100319.59;5046069;28;20044;-84
2023/09/10 09:29:51;;;;;;;6.53;4.80;;;;;;;20.55;100.00;100310.47;5029938;28;20036;-84
2023/09/10 09:32:17;;;;;;;5.28;4.70;;;;;;;20.68;100.00;100314.94;5046908;28;20385;-84
2023/09/10 09:34:42;;;;;;;5.13;4.57;;;;;;;20.80;100.00;100315.91;5041183;28;20103;-84
2023/09/10 09:37:08;;;;;;;4.68;4.28;;;;;;;20.90;100.00;100310.06;5009288;28;20091;-84
2023/09/10 09:39:34;;;;;;;4.18;3.72;;;;;;;21.00;100.00;100308.78;5038271;28;20032;-84
2023/09/10 09:42:00;;;;;;;4.63;4.10;;;;;;;21.05;100.00;100307.06;5050029;28;20032;-84
2023/09/10 09:44:27;;;;;;;6.05;3.63;;;;;;;21.11;100.00;100299.19;5031059;28;20043;-84
2023/09/10 09:46:57;;;;;;;6.35;4.15;;;;;;;21.13;100.00;100295.25;5018921;28;20405;-84
2023/09/10 09:49:25;;;;;;;4.35;3.60;;;;;;;21.14;100.00;100294.22;5035951;28;20037;-84
2023/09/10 09:51:51;;;;;;;6.00;3.58;;;;;;;21.20;100.00;100300.56;5032669;28;20040;-84
2023/09/10 09:54:18;;;;;;;3.72;3.15;;;;;;;21.28;100.00;100288.72;5015385;28;20218;-84
2023/09/10 09:56:46;;;;;;;5.75;3.33;;;;;;;21.37;100.00;100298.19;5035780;28;20036;-84
2023/09/10 09:59:11;;;;;;;3.70;3.08;;;;;;;21.46;100.00;100295.19;5017090;28;20037;-84
2023/09/10 10:01:39;;;;;;;5.00;3.90;;;;;;;21.63;100.00;100296.25;5034967;28;20036;-84
2023/09/10 10:04:06;;;;;;;5.50;3.70;;;;;;;21.78;100.00;100298.66;5030713;28;20060;-84
2023/09/10 10:06:32;;;;;;;5.35;3.80;;;;;;;21.92;100.00;100293.09;5013972;28;20500;-83
2023/09/10 10:09:00;;;;;;;6.47;4.22;;;;;;;22.05;100.00;100287.59;5030706;28;20033;-84
2023/09/10 10:11:31;;;;;;;6.80;3.95;;;;;;;22.04;100.00;100291.31;5039161;28;20036;-84
2023/09/10 10:13:59;;;;;;;5.15;3.92;;;;;;;22.00;100.00;100287.44;5038329;28;20045;-84
2023/09/10 10:16:29;;;;;;;5.47;3.70;;;;;;;22.01;100.00;100293.66;5032639;28;20548;-84
2023/09/10 10:18:55;;;;;;;5.45;3.38;;;;;;;22.03;100.00;100286.16;5045111;28;20025;-83
2023/09/10 10:21:24;;;;;;;4.60;3.40;;;;;;;22.16;100.00;100283.31;5038844;28;20040;-84
2023/09/10 10:23:56;;;;;;;5.68;3.63;;;;;;;22.29;100.00;100282.31;5070368;28;20573;-83
2023/09/10 10:26:23;;;;;;;6.60;4.57;;;;;;;22.33;100.00;100285.38;5051273;28;20134;-84
2023/09/10 10:28:49;;;;;;;7.13;3.10;;;;;;;22.41;100.00;100282.38;5050026;28;20543;-84
2023/09/10 10:31:17;;;;;;;4.18;2.95;;;;;;;22.51;100.00;100270.22;5056007;28;20029;-84
2023/09/10 10:33:50;;;;;;;7.30;4.35;;;;;;;22.60;100.00;100265.38;5056200;28;20039;-84
2023/09/10 10:36:37;;;;;;;3.35;2.97;;;;;;;22.63;100.00;100259.53;5054838;28;20523;-84
2023/09/10 10:39:09;;;;;;;3.35;2.80;;;;;;;22.68;100.00;100254.25;5035385;28;20068;-84
2023/09/10 10:41:42;;;;;;;3.70;2.72;;;;;;;22.73;100.00;100250.88;5034677;28;20029;-84
2023/09/10 10:47:20;;;;;;;4.22;2.38;;;;;;;23.08;100.00;100243.94;5118974;24;20056;-88
2023/09/10 10:49:54;;;;;;;3.58;2.22;;;;;;;23.28;100.00;100238.97;4749556;30;20106;-87
2023/09/10 10:52:24;;;;;;;5.25;2.25;;;;;;;23.39;100.00;100237.41;4754136;29;20039;-87
2023/09/10 10:54:51;;;;;;;3.95;2.83;;;;;;;23.35;100.00;100230.78;4787782;24;20141;-88
2023/09/10 10:57:20;;;;;;;10.10;2.47;;;;;;;23.37;100.00;100228.69;4813796;29;20042;-88
2023/09/10 10:59:46;;;;;;;4.47;2.38;;;;;;;23.40;100.00;100222.00;4800999;29;20041;-86
2023/09/10 11:02:21;;;;;;;2.42;1.90;;;;;;;23.50;100.00;100224.94;4792347;29;20046;-87
2023/09/10 11:05:13;;;;;;;4.55;2.20;;;;;;;23.55;100.00;100213.44;4808085;29;20092;-87
2023/09/10 11:07:39;;;;;;;3.13;2.20;;;;;;;23.61;100.00;100212.50;4791123;29;20041;-88
2023/09/10 11:10:41;;;;;;;3.05;1.83;;;;;;;23.69;100.00;100205.09;4791896;29;20541;-88
2023/09/10 11:13:08;;;;;;;3.47;1.77;;;;;;;23.70;100.00;100206.75;4741413;29;20495;-88
2023/09/10 11:15:35;;;;;;;3.13;2.30;;;;;;;23.78;100.00;100211.75;4806248;29;20030;-88
2023/09/10 11:18:35;;;;;;;2.67;2.08;;;;;;;23.90;100.00;100211.72;4781812;29;20065;-88
2023/09/10 11:21:16;;;;;;;3.20;1.92;;;;;;;24.01;100.00;100208.16;4821536;29;20550;-87